Airfield :
LOGIN :

Register | Disclaimer

   EN    FR    IT 

 










Legend :    VFR   Marginal VFR   IFR   Intensive IFR   Very Intensive IFR
Visi :
Ceiling :
>= 8 km
>= 3000ft
5 to 8 km
1000 to 3000 ft
1500m to 5 km
500 to 1000 ft
800 to 1500m
200 to 500 ft
< 800m
< 200 ft
Symbols :   Thunderstorms  Fog  Heavy snow  Heavy precipitations  Wind > 20 kt
SIGMETs :     Misc.  Thunderstorms  Icing  Turbulence  Mountain Waves  Volcanic Ashes






- Airport Elevation : 33 ft
- IATA code : PLQ


EYPA - Palanga

CURRENT METAR :
  • 220120Z AUTO 22010KT 190V260 9999 BKN036/// 06/03 Q1014

EXPIRED METARs :
  • 220050Z AUTO 23009KT 190V260 9999 FEW016/// BKN032/// BKN051/// 06/03 Q1015
  • 212250Z 24008KT 190V290 9999 BKN014 06/04 Q1016 R19/1///95

TAF TAF EYPA
Valid from the 21 at 18:00 until the 22 at 18:00 UTC


211700Z 2118/2218 25014G24KT 9000 BKN012
BECMG 2206/2208 19020G40KT SHRA SCT012CB OVC015
TEMPO 2214/2218 25030G50KT



MET'MAP, your aeronautical weather chart ! - Copyright ORBIFLY December 2007 - Disclaimer

ORBIFLY MET'MAP TEAM :

Programming & Development : Alexandra Zaïnal
Concept & original design : Baudouin d'Aumeries
Assistance for programming : Marc-Olivier Méhu
Technical & hardware support : Manuel Goepfert

Contact : metmap@orbifly.com




SOURCES & CREDITS :

   NOAA